createdAt,value
2023-05-20T00:01:28.028Z,97287.16
2023-05-20T00:03:30.797Z,97286.25
2023-05-20T00:05:33.500Z,97293.25
2023-05-20T00:07:36.067Z,97295.03
2023-05-20T00:09:40.837Z,97283.69
2023-05-20T00:11:43.482Z,97287.16
2023-05-20T00:13:48.306Z,97291.56
2023-05-20T00:15:50.861Z,97288.09
2023-05-20T00:17:53.521Z,97290.72
2023-05-20T00:19:56.258Z,97289.00
2023-05-20T00:21:59.038Z,97288.16
2023-05-20T00:24:01.688Z,97294.63
2023-05-20T00:26:05.791Z,97288.53
2023-05-20T00:28:08.380Z,97284.97
2023-05-20T00:30:12.058Z,97286.78
2023-05-20T00:32:14.974Z,97284.16
2023-05-20T00:34:17.590Z,97289.31
2023-05-20T00:36:20.665Z,97280.53
2023-05-20T00:38:23.353Z,97271.75
2023-05-20T00:40:26.016Z,97275.22
2023-05-20T00:42:30.308Z,97272.59
2023-05-20T00:44:33.366Z,97276.97
2023-05-20T00:46:36.857Z,97274.38
2023-05-20T00:48:43.405Z,97280.53
2023-05-20T00:50:46.082Z,97278.34
2023-05-20T00:52:51.669Z,97277.00
2023-05-20T00:54:54.257Z,97267.47
2023-05-20T00:56:57.795Z,97266.63
2023-05-20T00:59:01.872Z,97262.31
2023-05-20T01:01:04.644Z,97269.25
2023-05-20T01:03:07.441Z,97261.31
2023-05-20T01:05:10.500Z,97262.94
2023-05-20T01:07:14.767Z,97261.19
2023-05-20T01:09:17.410Z,97260.19
2023-05-20T01:11:27.366Z,97268.81
2023-05-20T01:13:36.938Z,97257.31
2023-05-20T01:15:43.133Z,97265.19
2023-05-20T01:17:48.013Z,97254.78
2023-05-20T01:19:51.474Z,97249.56
2023-05-20T01:21:55.111Z,97251.63
2023-05-20T01:23:59.080Z,97250.00
2023-05-20T01:26:01.636Z,97245.69
2023-05-20T01:28:05.042Z,97240.44
2023-05-20T01:30:09.043Z,97242.16
2023-05-20T01:32:16.296Z,97247.31
2023-05-20T01:34:19.456Z,97241.94
2023-05-20T01:36:22.637Z,97245.50
2023-05-20T01:38:26.290Z,97243.53
2023-05-20T01:40:32.551Z,97241.06
2023-05-20T01:42:36.386Z,97242.78
2023-05-20T01:44:39.323Z,97242.72
2023-05-20T01:46:41.969Z,97247.00
2023-05-20T01:48:44.653Z,97248.84
2023-05-20T01:50:47.266Z,97236.69
2023-05-20T01:52:50.026Z,97240.25
2023-05-20T01:54:52.609Z,97248.09
2023-05-20T01:56:57.029Z,97240.25
2023-05-20T01:58:59.692Z,97235.13
2023-05-20T02:01:02.688Z,97229.97
2023-05-20T02:03:05.442Z,97229.91
2023-05-20T02:05:08.729Z,97226.47
2023-05-20T02:07:11.278Z,97229.19
2023-05-20T02:09:14.129Z,97230.13
2023-05-20T02:11:16.720Z,97224.03
2023-05-20T02:13:20.774Z,97230.91
2023-05-20T02:15:23.421Z,97223.16
2023-05-20T02:17:27.385Z,97225.75
2023-05-20T02:19:30.154Z,97232.75
2023-05-20T02:21:32.835Z,97228.50
2023-05-20T02:23:35.817Z,97234.59
2023-05-20T02:25:38.407Z,97234.59
2023-05-20T02:27:41.060Z,97237.22
2023-05-20T02:29:45.632Z,97235.53
2023-05-20T02:31:48.966Z,97239.19
2023-05-20T02:33:51.584Z,97237.50
2023-05-20T02:35:54.177Z,97235.72
2023-05-20T02:37:56.828Z,97230.56
2023-05-20T02:39:59.455Z,97235.88
2023-05-20T02:42:02.052Z,97237.56
2023-05-20T02:44:04.665Z,97238.50
2023-05-20T02:46:08.648Z,97245.47
2023-05-20T02:48:11.271Z,97239.53
2023-05-20T02:50:13.898Z,97241.41
2023-05-20T02:52:16.815Z,97234.47
2023-05-20T02:54:19.406Z,97236.31
2023-05-20T02:56:22.029Z,97243.31
2023-05-20T02:58:26.406Z,97241.75
2023-05-20T03:00:31.273Z,97238.34
2023-05-20T03:02:35.366Z,97236.78
2023-05-20T03:04:39.087Z,97230.81
2023-05-20T03:06:44.321Z,97237.88
2023-05-20T03:08:46.967Z,97237.09
2023-05-20T03:10:50.007Z,97234.47
2023-05-20T03:12:52.603Z,97234.56
2023-05-20T03:14:55.432Z,97230.22
2023-05-20T03:16:58.071Z,97236.31
2023-05-20T03:19:02.251Z,97236.31
2023-05-20T03:21:05.190Z,97235.59
2023-05-20T03:23:08.324Z,97245.34
2023-05-20T03:25:11.189Z,97238.44
2023-05-20T03:27:13.786Z,97241.13
2023-05-20T03:29:19.024Z,97241.13
2023-05-20T03:31:21.676Z,97238.44
2023-05-20T03:33:26.274Z,97231.50
2023-05-20T03:35:30.452Z,97232.34
2023-05-20T03:37:33.230Z,97233.34
2023-05-20T03:39:35.835Z,97241.94
2023-05-20T03:41:38.908Z,97239.34
2023-05-20T03:43:41.540Z,97236.88
2023-05-20T03:45:44.223Z,97234.19
2023-05-20T03:47:46.844Z,97235.03
2023-05-20T03:49:49.491Z,97230.75
2023-05-20T03:51:53.386Z,97234.09
2023-05-20T03:53:55.976Z,97231.50
2023-05-20T03:55:58.606Z,97227.03
2023-05-20T03:58:01.793Z,97234.81
2023-05-20T04:00:09.938Z,97229.50
2023-05-20T04:02:12.660Z,97227.69
2023-05-20T04:04:15.673Z,97225.78
2023-05-20T04:06:18.441Z,97228.38
2023-05-20T04:08:25.858Z,97222.25
2023-05-20T04:10:28.513Z,97229.25
2023-05-20T04:12:32.386Z,97228.31
2023-05-20T04:14:35.816Z,97230.94
2023-05-20T04:16:38.877Z,97229.09
2023-05-20T04:18:41.567Z,97235.19
2023-05-20T04:20:44.721Z,97229.88
2023-05-20T04:22:48.206Z,97225.50
2023-05-20T04:24:52.244Z,97229.88
2023-05-20T04:26:54.899Z,97228.13
2023-05-20T04:28:59.004Z,97235.91
2023-05-20T04:31:02.766Z,97240.19
2023-05-20T04:33:06.270Z,97241.91
2023-05-20T04:35:12.068Z,97237.50
2023-05-20T04:37:15.503Z,97237.47
2023-05-20T04:39:19.007Z,97242.69
2023-05-20T04:41:23.978Z,97231.22
2023-05-20T04:43:29.839Z,97238.22
2023-05-20T04:45:33.851Z,97235.66
2023-05-20T04:47:38.826Z,97243.44
2023-05-20T04:49:42.249Z,97230.34
2023-05-20T04:51:44.997Z,97231.22
2023-05-20T04:53:47.571Z,97239.78
2023-05-20T04:55:53.858Z,97237.09
2023-05-20T04:57:57.807Z,97230.09
2023-05-20T05:00:00.552Z,97224.00
2023-05-20T05:02:03.133Z,97230.09
2023-05-20T05:04:06.178Z,97225.72
2023-05-20T05:06:08.788Z,97223.03
2023-05-20T05:08:12.524Z,97218.69
2023-05-20T05:10:15.725Z,97217.72
2023-05-20T05:12:18.349Z,97213.31
2023-05-20T05:14:22.317Z,97209.72
2023-05-20T05:16:24.989Z,97209.63
2023-05-20T05:18:27.766Z,97218.34
2023-05-20T05:20:30.379Z,97214.72
2023-05-20T05:22:35.414Z,97218.19
2023-05-20T05:24:38.021Z,97208.59
2023-05-20T05:26:40.618Z,97210.25
2023-05-20T05:28:43.957Z,97210.19
2023-05-20T05:30:47.912Z,97211.03
2023-05-20T05:32:50.619Z,97210.97
2023-05-20T05:34:53.293Z,97212.69
2023-05-20T05:36:55.892Z,97207.44
2023-05-20T05:38:58.478Z,97215.22
2023-05-20T05:41:01.045Z,97211.66
2023-05-20T05:43:03.753Z,97205.53
2023-05-20T05:45:07.224Z,97201.19
2023-05-20T05:47:11.556Z,97205.66
2023-05-20T05:49:14.250Z,97208.19
2023-05-20T05:51:16.905Z,97207.28
2023-05-20T05:53:19.505Z,97206.34
2023-05-20T05:55:23.764Z,97206.28
2023-05-20T05:57:26.305Z,97202.75
2023-05-20T05:59:28.916Z,97206.97
2023-05-20T06:01:31.563Z,97199.91
2023-05-20T06:03:37.329Z,97194.59
2023-05-20T06:05:40.020Z,97186.63
2023-05-20T06:07:42.736Z,97178.69
2023-05-20T06:09:45.792Z,97188.22
2023-05-20T06:11:48.365Z,97182.75
2023-05-20T06:13:51.154Z,97186.22
2023-05-20T06:15:54.166Z,97184.38
2023-05-20T06:17:56.832Z,97176.44
2023-05-20T06:20:00.870Z,97181.53
2023-05-20T06:22:03.540Z,97173.63
2023-05-20T06:24:06.980Z,97176.97
2023-05-20T06:26:09.649Z,97176.91
2023-05-20T06:28:12.701Z,97177.69
2023-05-20T06:30:15.506Z,97174.97
2023-05-20T06:32:18.115Z,97176.69
2023-05-20T06:34:20.852Z,97175.66
2023-05-20T06:36:24.793Z,97178.16
2023-05-20T06:38:27.396Z,97180.63
2023-05-20T06:40:30.121Z,97172.69
2023-05-20T06:42:32.721Z,97176.00
2023-05-20T06:44:35.314Z,97169.72
2023-05-20T06:46:37.971Z,97173.03
2023-05-20T06:48:40.751Z,97165.97
2023-05-20T06:50:43.349Z,97160.63
2023-05-20T06:52:47.277Z,97152.69
2023-05-20T06:54:49.843Z,97149.97
2023-05-20T06:56:52.421Z,97156.03
2023-05-20T06:58:55.884Z,97154.19
2023-05-20T07:00:58.444Z,97158.44
2023-05-20T07:03:01.092Z,97145.34
2023-05-20T07:05:03.747Z,97150.75
2023-05-20T07:07:06.727Z,97147.97
2023-05-20T07:09:13.081Z,97146.19
2023-05-20T07:11:15.800Z,97143.50
2023-05-20T07:13:19.424Z,97147.72
2023-05-20T07:15:22.048Z,97146.94
2023-05-20T07:17:25.083Z,97151.94
2023-05-20T07:19:27.810Z,97149.25
2023-05-20T07:21:30.874Z,97147.31
2023-05-20T07:23:33.510Z,97152.38
2023-05-20T07:25:37.455Z,97148.78
2023-05-20T07:27:40.049Z,97148.69
2023-05-20T07:29:42.706Z,97143.38
2023-05-20T07:31:45.327Z,97128.31
2023-05-20T07:33:47.927Z,97121.22
2023-05-20T07:35:50.592Z,97121.16
2023-05-20T07:37:53.207Z,97113.97
2023-05-20T07:39:56.074Z,97112.03
2023-05-20T07:42:00.099Z,97107.56
2023-05-20T07:44:03.796Z,97110.84
2023-05-20T07:46:06.702Z,97107.28
2023-05-20T07:48:10.862Z,97109.75
2023-05-20T07:50:13.562Z,97104.50
2023-05-20T07:52:16.181Z,97112.44
2023-05-20T07:54:18.818Z,97106.94
2023-05-20T07:56:21.657Z,97109.56
2023-05-20T07:58:25.642Z,97113.72
2023-05-20T08:00:28.269Z,97117.19
2023-05-20T08:02:30.937Z,97113.53
2023-05-20T08:04:33.747Z,97137.72
2023-05-20T08:06:36.853Z,97134.09
2023-05-20T08:08:40.450Z,97130.47
2023-05-20T08:10:43.051Z,97133.75
2023-05-20T08:12:46.105Z,97137.16
2023-05-20T08:14:50.049Z,97142.25
2023-05-20T08:16:54.839Z,97134.63
2023-05-20T08:18:57.830Z,97139.63
2023-05-20T08:21:00.934Z,97137.66
2023-05-20T08:23:03.542Z,97134.09
2023-05-20T08:25:10.016Z,97133.16
2023-05-20T08:27:12.634Z,97131.22
2023-05-20T08:29:15.219Z,97125.81
2023-05-20T08:31:19.253Z,97127.50
2023-05-20T08:33:22.618Z,97128.28
2023-05-20T08:35:25.415Z,97122.06
2023-05-20T08:37:28.122Z,97122.66
2023-05-20T08:39:30.711Z,97119.88
2023-05-20T08:41:33.347Z,97120.53
2023-05-20T08:43:36.512Z,97115.94
2023-05-20T08:45:40.066Z,97118.53
2023-05-20T08:47:44.736Z,97118.34
2023-05-20T08:49:47.387Z,97120.00
2023-05-20T08:51:50.026Z,97118.16
2023-05-20T08:53:53.059Z,97119.78
2023-05-20T08:56:01.007Z,97117.88
2023-05-20T08:58:04.609Z,97118.66
2023-05-20T09:00:13.400Z,97116.91
2023-05-20T09:02:16.403Z,97108.75
2023-05-20T09:04:20.403Z,97114.84
2023-05-20T09:06:24.039Z,97109.69
2023-05-20T09:08:27.254Z,97103.91
2023-05-20T09:10:29.940Z,97097.63
2023-05-20T09:12:34.219Z,97103.53
2023-05-20T09:14:36.856Z,97099.16
2023-05-20T09:16:41.115Z,97098.28
2023-05-20T09:18:43.926Z,97105.91
2023-05-20T09:20:52.867Z,97094.28
2023-05-20T09:22:55.667Z,97097.66
2023-05-20T09:24:58.533Z,97100.97
2023-05-20T09:27:01.300Z,97101.72
2023-05-20T09:29:03.881Z,97102.94
2023-05-20T09:31:06.750Z,97096.59
2023-05-20T09:33:09.509Z,97091.03
2023-05-20T09:35:14.436Z,97088.88
2023-05-20T09:37:20.283Z,97094.03
2023-05-20T09:39:26.917Z,97092.84
2023-05-20T09:41:35.425Z,97089.75
2023-05-20T09:43:39.105Z,97093.50
2023-05-20T09:45:42.775Z,97094.97
2023-05-20T09:47:47.605Z,97093.09
2023-05-20T09:49:52.584Z,97092.09
2023-05-20T09:51:57.152Z,97092.75
2023-05-20T09:54:03.610Z,97088.13
2023-05-20T09:56:06.853Z,97082.78
2023-05-20T09:58:13.686Z,97077.41
2023-05-20T10:00:18.539Z,97083.63
2023-05-20T10:02:21.673Z,97084.47
2023-05-20T10:04:26.628Z,97078.19
2023-05-20T10:07:11.793Z,97073.66
2023-05-20T10:09:33.548Z,97074.50
2023-05-20T10:11:42.154Z,97070.94
2023-05-20T10:14:04.956Z,97073.09
2023-05-20T10:16:18.979Z,97073.66
2023-05-20T10:18:33.725Z,97073.47
2023-05-20T10:20:46.609Z,97074.22
2023-05-20T10:22:57.544Z,97081.81
2023-05-20T10:25:06.691Z,97075.50
2023-05-20T10:27:11.061Z,97063.09
2023-05-20T10:29:17.474Z,97059.44
2023-05-20T10:31:23.642Z,97060.09
2023-05-20T10:33:27.490Z,97058.94
2023-05-20T10:35:30.187Z,97055.16
2023-05-20T10:37:34.444Z,97050.53
2023-05-20T10:39:37.031Z,97057.19
2023-05-20T10:41:41.080Z,97047.53
2023-05-20T10:43:44.831Z,97050.59
2023-05-20T10:45:52.426Z,97048.78
2023-05-20T10:47:56.821Z,97047.53
2023-05-20T10:50:01.583Z,97042.81
2023-05-20T10:52:04.806Z,97041.03
2023-05-20T10:54:11.510Z,97031.03
2023-05-20T10:56:18.408Z,97028.31
2023-05-20T10:58:23.004Z,97022.81
2023-05-20T11:00:26.182Z,97024.53
2023-05-20T11:02:29.670Z,97021.69
2023-05-20T11:04:33.489Z,97029.47
2023-05-20T11:06:36.067Z,97013.38
2023-05-20T11:08:38.712Z,97000.84
2023-05-20T11:10:43.360Z,97010.09
2023-05-20T11:12:46.158Z,97004.34
2023-05-20T11:14:51.544Z,97012.97
2023-05-20T11:16:57.100Z,97007.00
2023-05-20T11:18:59.814Z,97003.00
2023-05-20T11:21:03.442Z,97005.41
2023-05-20T11:23:07.419Z,97002.16
2023-05-20T11:25:10.996Z,97002.78
2023-05-20T11:27:13.640Z,96992.13
2023-05-20T11:29:16.498Z,96988.41
2023-05-20T11:31:20.574Z,96996.84
2023-05-20T11:33:27.215Z,96989.25
2023-05-20T11:35:32.298Z,96989.13
2023-05-20T11:37:37.261Z,96989.13
2023-05-20T11:39:40.328Z,96989.88
2023-05-20T11:41:44.065Z,96984.38
2023-05-20T11:43:46.862Z,96989.66
2023-05-20T11:45:54.622Z,96986.28
2023-05-20T11:48:02.850Z,96982.03
2023-05-20T11:50:06.104Z,96983.97
2023-05-20T11:52:11.395Z,96990.06
2023-05-20T11:54:13.995Z,96984.78
2023-05-20T11:56:16.590Z,96972.47
2023-05-20T11:58:20.829Z,96976.34
2023-05-20T12:00:24.996Z,96976.75
2023-05-20T12:02:28.236Z,96973.88
2023-05-20T12:04:32.282Z,96968.91
2023-05-20T12:06:35.029Z,96962.56
2023-05-20T12:08:37.675Z,96962.38
2023-05-20T12:10:40.273Z,96959.63
2023-05-20T12:12:43.981Z,96960.34
2023-05-20T12:14:46.599Z,96957.78
2023-05-20T12:16:49.202Z,96956.88
2023-05-20T12:18:51.861Z,96947.88
2023-05-20T12:20:55.992Z,96943.09
2023-05-20T12:22:59.844Z,96955.72
2023-05-20T12:25:02.464Z,96958.34
2023-05-20T12:27:06.395Z,96959.34
2023-05-20T12:29:09.017Z,96966.34
2023-05-20T12:31:11.648Z,96958.44
2023-05-20T12:33:14.292Z,96947.53
2023-05-20T12:35:17.067Z,96947.78
2023-05-20T12:37:21.132Z,96951.88
2023-05-20T12:39:23.775Z,96951.78
2023-05-20T12:41:26.406Z,96946.00
2023-05-20T12:43:29.235Z,96947.09
2023-05-20T12:45:32.215Z,96950.00
2023-05-20T12:47:35.699Z,96941.72
2023-05-20T12:49:38.314Z,96943.88
2023-05-20T12:51:41.249Z,96934.78
2023-05-20T12:53:45.471Z,96932.84
2023-05-20T12:55:48.109Z,96928.41
2023-05-20T12:57:51.098Z,96923.13
2023-05-20T12:59:53.708Z,96925.06
2023-05-20T13:01:56.719Z,96921.22
2023-05-20T13:03:59.393Z,96923.75
2023-05-20T13:06:02.068Z,96928.03
2023-05-20T13:08:04.839Z,96925.53
2023-05-20T13:10:10.462Z,96921.56
2023-05-20T13:12:13.202Z,96916.50
2023-05-20T13:14:17.449Z,96915.78
2023-05-20T13:16:20.316Z,96915.28
2023-05-20T13:18:22.940Z,96913.63
2023-05-20T13:20:25.805Z,96907.63
2023-05-20T13:22:28.448Z,96907.25
2023-05-20T13:24:31.167Z,96907.16
2023-05-20T13:26:35.109Z,96905.94
2023-05-20T13:28:37.745Z,96901.56
2023-05-20T13:30:40.402Z,96895.97
2023-05-20T13:32:43.092Z,96895.41
2023-05-20T13:34:45.896Z,96893.47
2023-05-20T13:36:48.799Z,96893.31
2023-05-20T13:38:51.491Z,96891.16
2023-05-20T13:40:54.085Z,96877.16
2023-05-20T13:42:58.093Z,96880.97
2023-05-20T13:45:00.814Z,96877.91
2023-05-20T13:47:03.466Z,96870.78
2023-05-20T13:49:06.408Z,96871.19
2023-05-20T13:51:09.111Z,96876.84
2023-05-20T13:53:13.722Z,96870.88
2023-05-20T13:55:16.769Z,96874.69
2023-05-20T13:57:19.654Z,96876.91
2023-05-20T13:59:23.598Z,96872.19
2023-05-20T14:01:26.201Z,96871.34
2023-05-20T14:03:28.856Z,96869.75
2023-05-20T14:05:32.490Z,96864.56
2023-05-20T14:07:35.093Z,96872.09
2023-05-20T14:09:37.992Z,96870.97
2023-05-20T14:11:40.706Z,96863.59
2023-05-20T14:13:44.439Z,96863.03
2023-05-20T14:15:49.176Z,96862.94
2023-05-20T14:17:51.828Z,96860.59
2023-05-20T14:19:54.445Z,96860.19
2023-05-20T14:21:58.853Z,96855.84
2023-05-20T14:24:01.964Z,96859.34
2023-05-20T14:26:04.638Z,96845.63
2023-05-20T14:28:07.437Z,96845.06
2023-05-20T14:30:11.217Z,96842.69
2023-05-20T14:32:15.250Z,96849.66
2023-05-20T14:34:17.949Z,96849.53
2023-05-20T14:36:20.611Z,96839.63
2023-05-20T14:38:23.488Z,96845.63
2023-05-20T14:40:26.112Z,96842.13
2023-05-20T14:42:28.748Z,96841.19
2023-05-20T14:44:31.542Z,96844.53
2023-05-20T14:46:34.389Z,96823.56
2023-05-20T14:48:38.393Z,96834.47
2023-05-20T14:50:40.959Z,96834.44
2023-05-20T14:52:43.649Z,96836.53
